createdAt,value
2022-11-25T00:02:58.034Z,3.18
2022-11-25T00:07:59.593Z,3.13
2022-11-25T00:13:01.055Z,3.08
2022-11-25T00:18:02.619Z,3.08
2022-11-25T00:23:04.121Z,3.01
2022-11-25T00:28:05.580Z,3.05
2022-11-25T00:33:07.031Z,3.03
2022-11-25T00:38:08.517Z,2.99
2022-11-25T00:43:28.705Z,3.03
2022-11-25T00:48:31.284Z,3.04
2022-11-25T00:53:32.759Z,3.13
2022-11-25T00:58:34.257Z,3.22
2022-11-25T01:03:37.166Z,3.28
2022-11-25T01:08:39.877Z,3.34
2022-11-25T01:13:42.137Z,3.32
2022-11-25T01:18:44.519Z,3.34
2022-11-25T01:23:46.644Z,3.34
2022-11-25T01:28:48.975Z,3.30
2022-11-25T01:33:56.916Z,3.25
2022-11-25T01:38:59.971Z,3.20
2022-11-25T01:44:12.987Z,3.17
2022-11-25T01:49:22.416Z,3.18
2022-11-25T01:54:28.565Z,3.18
2022-11-25T01:59:33.752Z,3.21
2022-11-25T02:04:39.896Z,3.03
2022-11-25T02:09:43.546Z,2.94
2022-11-25T02:14:46.523Z,2.87
2022-11-25T02:20:04.362Z,2.88
2022-11-25T02:25:16.213Z,2.88
2022-11-25T02:30:18.514Z,2.83
2022-11-25T02:35:44.976Z,2.92
2022-11-25T02:41:00.477Z,2.79
2022-11-25T02:46:05.626Z,2.76
2022-11-25T02:51:09.606Z,2.73
2022-11-25T02:56:13.341Z,2.70
2022-11-25T03:01:14.884Z,2.71
2022-11-25T03:06:16.626Z,2.80
2022-11-25T03:11:18.145Z,2.78
2022-11-25T03:16:19.654Z,2.73
2022-11-25T03:21:21.221Z,2.81
2022-11-25T03:26:22.724Z,2.77
2022-11-25T03:31:24.295Z,2.79
2022-11-25T03:36:25.820Z,2.81
2022-11-25T03:41:27.265Z,2.82
2022-11-25T03:46:28.759Z,2.79
2022-11-25T03:51:30.252Z,2.79
2022-11-25T03:56:31.888Z,2.82
2022-11-25T04:01:33.490Z,2.86
2022-11-25T04:06:35.124Z,2.86
2022-11-25T04:11:55.331Z,2.90
2022-11-25T04:16:57.001Z,2.92
2022-11-25T04:22:01.069Z,2.92
2022-11-25T04:27:02.613Z,2.90
2022-11-25T04:32:04.458Z,2.90
2022-11-25T04:37:05.912Z,2.93
2022-11-25T04:42:42.911Z,2.98
2022-11-25T04:47:45.258Z,2.93
2022-11-25T04:52:46.788Z,2.87
2022-11-25T04:57:48.380Z,2.75
2022-11-25T05:02:49.845Z,2.87
2022-11-25T05:07:51.499Z,2.74
2022-11-25T05:12:53.056Z,2.76
2022-11-25T05:17:54.492Z,2.69
2022-11-25T05:22:55.940Z,2.64
2022-11-25T05:27:57.474Z,2.77
2022-11-25T05:32:58.973Z,2.82
2022-11-25T05:38:01.211Z,2.77
2022-11-25T05:43:03.440Z,2.81
2022-11-25T05:48:05.054Z,2.97
2022-11-25T05:53:06.563Z,3.06
2022-11-25T05:58:08.031Z,3.13
2022-11-25T06:03:09.561Z,3.15
2022-11-25T06:08:11.585Z,3.14
2022-11-25T06:13:13.081Z,3.09
2022-11-25T06:18:17.355Z,3.19
2022-11-25T06:23:18.792Z,3.16
2022-11-25T06:28:20.297Z,3.20
2022-11-25T06:33:21.766Z,3.26
2022-11-25T06:38:23.235Z,3.29
2022-11-25T06:43:24.736Z,3.34
2022-11-25T06:48:27.972Z,3.40
2022-11-25T06:53:30.326Z,3.41
2022-11-25T06:58:36.362Z,3.48
2022-11-25T07:03:38.303Z,3.58
2022-11-25T07:08:40.343Z,3.62
2022-11-25T07:13:41.923Z,3.69
2022-11-25T07:18:43.416Z,3.70
2022-11-25T07:23:46.222Z,3.72
2022-11-25T07:28:48.355Z,3.72
2022-11-25T07:33:54.859Z,3.76
2022-11-25T07:38:58.764Z,3.88
2022-11-25T07:44:03.286Z,3.94
2022-11-25T07:49:07.801Z,3.99
2022-11-25T07:54:12.458Z,4.04
2022-11-25T07:59:15.719Z,4.01
2022-11-25T08:04:20.496Z,4.03
2022-11-25T08:09:23.683Z,4.08
2022-11-25T08:14:25.882Z,4.09
2022-11-25T08:19:31.439Z,4.13
2022-11-25T08:24:33.147Z,4.16
2022-11-25T08:29:35.085Z,4.17
2022-11-25T08:34:36.837Z,4.24
2022-11-25T08:39:54.023Z,4.26
2022-11-25T08:44:56.126Z,4.32
2022-11-25T08:49:57.980Z,4.28
2022-11-25T08:54:59.536Z,4.29
2022-11-25T09:00:01.059Z,4.29
2022-11-25T09:05:02.805Z,4.36
2022-11-25T09:10:06.591Z,4.29
2022-11-25T09:15:08.816Z,4.45
2022-11-25T09:20:10.666Z,4.41
2022-11-25T09:25:12.192Z,4.41
2022-11-25T09:30:14.358Z,4.45
2022-11-25T09:35:16.626Z,4.41
2022-11-25T09:40:21.665Z,4.46
2022-11-25T09:45:50.337Z,4.43
2022-11-25T09:51:18.621Z,4.47
2022-11-25T09:56:38.083Z,4.52
2022-11-25T10:02:02.597Z,4.58
2022-11-25T10:07:05.138Z,4.54
2022-11-25T10:12:30.777Z,4.71
2022-11-25T10:17:50.968Z,4.63
2022-11-25T10:22:57.352Z,4.58
2022-11-25T10:28:01.808Z,4.61
2022-11-25T10:33:31.547Z,4.64
2022-11-25T10:38:44.221Z,4.74
2022-11-25T10:43:47.633Z,4.76
2022-11-25T10:49:05.698Z,4.83
2022-11-25T10:54:27.621Z,4.90
2022-11-25T10:59:38.762Z,4.98
2022-11-25T11:05:04.732Z,5.01
2022-11-25T11:10:14.570Z,5.04
2022-11-25T11:15:22.066Z,5.07
2022-11-25T11:20:30.693Z,5.08
2022-11-25T11:25:34.638Z,5.12
2022-11-25T11:30:36.109Z,5.15
2022-11-25T11:36:01.749Z,5.40
2022-11-25T11:41:34.035Z,5.35
2022-11-25T11:47:10.464Z,5.43
2022-11-25T11:52:44.340Z,5.47
2022-11-25T11:58:00.255Z,5.43
2022-11-25T12:03:13.580Z,5.54
2022-11-25T12:08:33.964Z,5.63
2022-11-25T12:13:50.575Z,5.58
2022-11-25T12:19:07.345Z,5.69
2022-11-25T12:24:32.748Z,5.79
2022-11-25T12:29:44.122Z,5.76
2022-11-25T12:34:53.836Z,5.94
2022-11-25T12:40:13.846Z,6.04
2022-11-25T12:45:22.631Z,6.02
2022-11-25T12:50:38.447Z,6.04
2022-11-25T12:55:41.071Z,6.09
2022-11-25T13:01:20.034Z,6.08
2022-11-25T13:06:42.850Z,6.14
2022-11-25T13:12:02.868Z,6.15
2022-11-25T13:17:13.341Z,6.19
2022-11-25T13:22:18.061Z,6.22
2022-11-25T13:27:33.813Z,6.22
2022-11-25T13:32:40.536Z,6.31
2022-11-25T13:37:42.529Z,6.24
2022-11-25T13:42:44.834Z,6.24
2022-11-25T13:47:49.115Z,6.24
2022-11-25T13:52:59.909Z,6.28
2022-11-25T13:58:10.185Z,6.36
2022-11-25T14:03:20.683Z,6.42
2022-11-25T14:08:45.850Z,6.40
2022-11-25T14:14:06.204Z,6.41
2022-11-25T14:19:50.736Z,6.57
2022-11-25T14:24:34.853Z,6.49
2022-11-25T14:29:46.390Z,6.43
2022-11-25T14:35:01.185Z,6.51
2022-11-25T14:40:15.591Z,6.43
2022-11-25T14:45:30.418Z,6.44
2022-11-25T14:50:35.599Z,6.38
2022-11-25T14:55:38.004Z,6.40
2022-11-25T15:00:51.837Z,6.37
2022-11-25T15:05:55.538Z,6.38
2022-11-25T15:11:00.195Z,6.40
2022-11-25T15:16:07.832Z,6.37
2022-11-25T15:21:14.645Z,6.36
2022-11-25T15:26:22.746Z,6.42
2022-11-25T15:31:42.424Z,6.32
2022-11-25T15:36:43.999Z,6.32
2022-11-25T15:41:48.744Z,6.32
2022-11-25T15:46:59.422Z,6.39
2022-11-25T15:52:08.404Z,6.36
2022-11-25T15:57:19.534Z,6.37
2022-11-25T16:02:50.321Z,6.27
2022-11-25T16:07:53.079Z,6.32
2022-11-25T16:13:30.641Z,6.38
2022-11-25T16:18:54.614Z,6.38
2022-11-25T16:24:09.306Z,6.36
2022-11-25T16:29:17.130Z,6.35
2022-11-25T16:34:20.836Z,6.37
2022-11-25T16:39:22.374Z,6.43
2022-11-25T16:44:26.146Z,6.49
2022-11-25T16:49:30.361Z,6.40
2022-11-25T16:54:33.743Z,6.43
2022-11-25T16:59:40.884Z,6.51
2022-11-25T17:04:42.360Z,6.52
2022-11-25T17:09:44.896Z,6.49
2022-11-25T17:14:48.315Z,6.51
2022-11-25T17:19:49.850Z,6.47
2022-11-25T17:24:51.561Z,6.46
2022-11-25T17:29:54.408Z,6.42
2022-11-25T17:34:55.857Z,6.37
2022-11-25T17:39:57.361Z,6.34
2022-11-25T17:44:59.822Z,6.42
2022-11-25T17:50:01.720Z,6.50
2022-11-25T17:55:03.379Z,6.42
2022-11-25T18:00:06.014Z,6.47
2022-11-25T18:05:18.968Z,6.45
2022-11-25T18:10:24.809Z,6.40
2022-11-25T18:15:30.443Z,6.42
2022-11-25T18:20:33.122Z,6.47
2022-11-25T18:25:34.679Z,6.48
2022-11-25T18:30:38.422Z,6.48
2022-11-25T18:35:40.694Z,6.59
2022-11-25T18:40:45.578Z,6.54
2022-11-25T18:45:51.335Z,6.56
2022-11-25T18:50:54.935Z,6.61
2022-11-25T18:55:56.425Z,6.69
2022-11-25T19:01:03.409Z,6.65
2022-11-25T19:06:05.584Z,6.70
2022-11-25T19:11:14.966Z,6.71
2022-11-25T19:16:19.636Z,6.67
2022-11-25T19:21:21.409Z,6.74
2022-11-25T19:26:30.110Z,6.76
2022-11-25T19:31:33.272Z,6.82
2022-11-25T19:36:37.689Z,6.77
2022-11-25T19:41:39.146Z,6.78
2022-11-25T19:47:13.839Z,6.83
2022-11-25T19:52:18.016Z,6.78
2022-11-25T19:57:22.163Z,6.89
2022-11-25T20:02:25.875Z,6.86
2022-11-25T20:07:27.678Z,6.87
2022-11-25T20:12:29.805Z,6.83
2022-11-25T20:17:34.645Z,6.89
2022-11-25T20:22:39.741Z,6.79
2022-11-25T20:27:41.461Z,6.85
2022-11-25T20:32:43.147Z,6.98
2022-11-25T20:37:53.580Z,6.88
2022-11-25T20:42:55.161Z,6.81
2022-11-25T20:47:58.768Z,6.85
2022-11-25T20:53:00.266Z,6.80
2022-11-25T20:58:03.260Z,6.73
2022-11-25T21:03:04.747Z,6.66
2022-11-25T21:08:14.402Z,6.48
2022-11-25T21:13:25.101Z,6.35
2022-11-25T21:18:26.595Z,6.22
2022-11-25T21:23:32.331Z,6.17
2022-11-25T21:28:37.968Z,6.17
2022-11-25T21:33:39.564Z,6.24
2022-11-25T21:38:41.135Z,6.29
2022-11-25T21:43:46.268Z,6.23
2022-11-25T21:48:47.923Z,6.23
2022-11-25T21:53:53.360Z,6.37
2022-11-25T21:59:00.053Z,6.32
2022-11-25T22:04:01.514Z,6.19
2022-11-25T22:09:02.930Z,6.01
2022-11-25T22:14:34.293Z,5.87
2022-11-25T22:19:35.865Z,5.77
2022-11-25T22:24:37.725Z,5.69
2022-11-25T22:29:39.361Z,5.65
2022-11-25T22:34:41.136Z,5.43
2022-11-25T22:39:42.694Z,5.16
2022-11-25T22:44:47.759Z,4.93
2022-11-25T22:49:50.291Z,4.67
2022-11-25T22:54:52.007Z,4.50
2022-11-25T22:59:53.467Z,4.33
2022-11-25T23:04:55.871Z,4.17
2022-11-25T23:09:57.423Z,4.07
2022-11-25T23:14:58.902Z,4.18
2022-11-25T23:20:00.423Z,4.25
2022-11-25T23:25:02.209Z,4.26
2022-11-25T23:30:03.824Z,4.33
2022-11-25T23:35:05.884Z,4.20
2022-11-25T23:40:17.796Z,3.88
2022-11-25T23:45:21.243Z,3.83
2022-11-25T23:50:32.409Z,3.79
2022-11-25T23:55:36.724Z,3.75
